Cole Camp, MO

8:13 PM CDT on August 27, 2014 (GMT -0500)
KMOSEDAL5 | Change Station
CLOSE
Current Station
Personal Weather Station
Location: Sedalia, MO
Elevation: 837 ft
Nearby Weather Stations

Elev 837 ft 38.70 °N, 93.29 °W | Updated 1 second ago

Clear
Clear
81.5 °F
Feels Like 88 °F
N
1.0
Wind Variable Wind from ENE
Gusts 4.0 mph

Today
High -- | Low -- °F
--% Chance of Precip.
Yesterday
High -- | Low -- °F
Precip. -- in
6:37 AM 7:50 PM
Waxing Crescent, 5% visible
Pressure 30.02 in
Visibility 7.0 miles
Clouds Clear
Heat Index 88 °F
Dew Point 75 °F
Humidity 80%
Rainfall 0.00 in
Snow Depth Not available.
UV 0 out of 12
Pollen 10.40 out of 12
Air Quality Not available.
Flu Activity Not available.
METAR KDMO 280053Z AUTO 08004KT 7SM CLR 27/23 A3005 RMK AO2 SLP166 T02670228

More Conditions Fewer Conditions

Pressure 30.02 in
Visibility 7.0 miles
Clouds Clear
Heat Index 88 °F
Dew Point 75 °F
Humidity 80%
Rainfall 0.00 in
Snow Depth Not available.
UV 0 out of 12
Pollen 10.40 out of 12
Air Quality Not available.
Flu Activity Not available.
METAR KDMO 280053Z AUTO 08004KT 7SM CLR 27/23 A3005 RMK AO2 SLP166 T02670228

More Conditions Fewer Conditions

10-Day Weather Forecast

Almanac

Astronomy

Aug. 27, 2014 Rise Set
Actual Time 6:37 AM CDT 7:50 PM CDT
Civil Twilight 6:10 AM CDT 8:17 PM CDT
Nautical Twilight 5:37 AM CDT 8:50 PM CDT
Astronomical Twilight 5:03 AM CDT 9:24 PM CDT
Moon 8:32 AM CDT (8/27) 8:45 PM CDT (8/27)
Length of Visible Light 14h 07m
Length of Day
13h 12m
Tomorrow will be 2m 21s shorter.
Waxing Crescent, 5% of the Moon is Illuminated
Today
Waxing Crescent
Sep 2
First Quarter
Sep 8
Full
Sep 15
Last Quarter
Sep 24
New

Today's Extremes

State Highs State Lows

Community

WunderPhotos

Upload Photos

1,747,842 photos uploaded!

Nearby

Snow Depth

Station Depth Elevation
No new snow has been reported.

Earthquake Activity

City Distance Mag. Time & Date
No recent earthquake activity has been reported nearby.
Minimum magnitude displayed is 2.5.

Coastal Water Temperatures

Place Temperature
No Stations Reporting

Nearby Weather Stations